Green Bay, Wisconsin
Current Conditions -  °F | °C
As of 4:07 PM on Thursday 23 Oct 2014 (Local Time) from KGRB Reporting Station
Light Rain Light Rain  
Wind Chill: 50°   Ceiling: 2500
Heat Index: 50°   Visibility: 5mi
Dew Point: 47°   Wind: 5mph
Humidity: 89%   Direction: 210°SSW
Pressure: 30.05"   Gusts: NA
Location:  44.51°N, 88.01°W
Report Text: KGRB 232107Z 21004KT 5SM -RA BR BKN025 OVC037 10/08 A3005 RMK AO2 P0001 T01000083
Loading
Personal Weather Stations






























Interactive Weather Map
Tropical Storm Tracking
New forecast layout! Learn more

10-Day Weather Forecast

Advertisements
Track Severe Weather on mobile